Wushaoling, China
Current Conditions -  °F | °C
As of 7:00 AM on Friday 19 Dec 2014 (Local Time) from ZLLL Reporting Station
Clear Clear  
Wind Chill: -4°   Ceiling: Unl
Heat Index:   Visibility: 6mi
Dew Point: -8°   Wind: 4mph
Humidity: 56%   Direction: 330°NNW
Pressure: 30.24"   Gusts: NA
Location:  37.2°N, 102.87°E
Report Text: ZLLL 182300Z 33002MPS CAVOK M15/M22 Q1024 NOSIG
Loading
Personal Weather Stations






























Interactive Weather Map New forecast layout! Learn more

10-Day Weather Forecast

Advertisements
Track Severe Weather on mobile